sensor_id;sensor_type;location;lat;lon;timestamp;temperature;humidity
77496;SHT31;66600;48.378;9.948;2023-02-01T00:01:22;2.00;83.95
77496;SHT31;66600;48.378;9.948;2023-02-01T00:03:47;1.99;84.17
77496;SHT31;66600;48.378;9.948;2023-02-01T00:06:13;2.03;84.13
77496;SHT31;66600;48.378;9.948;2023-02-01T00:08:38;1.99;83.88
77496;SHT31;66600;48.378;9.948;2023-02-01T00:11:08;1.99;84.74
77496;SHT31;66600;48.378;9.948;2023-02-01T00:13:36;2.00;84.30
77496;SHT31;66600;48.378;9.948;2023-02-01T00:16:14;2.01;84.60
77496;SHT31;66600;48.378;9.948;2023-02-01T00:18:44;1.97;84.35
77496;SHT31;66600;48.378;9.948;2023-02-01T00:21:13;2.01;84.54
77496;SHT31;66600;48.378;9.948;2023-02-01T00:23:40;2.03;84.63
77496;SHT31;66600;48.378;9.948;2023-02-01T00:26:09;2.07;83.69
77496;SHT31;66600;48.378;9.948;2023-02-01T00:28:36;2.03;83.89
77496;SHT31;66600;48.378;9.948;2023-02-01T00:31:03;2.01;84.59
77496;SHT31;66600;48.378;9.948;2023-02-01T00:33:30;2.00;84.96
77496;SHT31;66600;48.378;9.948;2023-02-01T00:36:00;2.01;84.79
77496;SHT31;66600;48.378;9.948;2023-02-01T00:38:27;2.01;85.04
77496;SHT31;66600;48.378;9.948;2023-02-01T00:40:52;2.03;84.35
77496;SHT31;66600;48.378;9.948;2023-02-01T00:43:18;2.11;83.65
77496;SHT31;66600;48.378;9.948;2023-02-01T00:45:45;2.06;84.25
77496;SHT31;66600;48.378;9.948;2023-02-01T00:48:10;2.04;84.31
77496;SHT31;66600;48.378;9.948;2023-02-01T00:50:41;2.03;84.26
77496;SHT31;66600;48.378;9.948;2023-02-01T00:53:06;2.06;83.77
77496;SHT31;66600;48.378;9.948;2023-02-01T00:55:32;2.03;83.94
77496;SHT31;66600;48.378;9.948;2023-02-01T00:57:57;2.01;84.15
77496;SHT31;66600;48.378;9.948;2023-02-01T01:00:22;1.94;84.50
77496;SHT31;66600;48.378;9.948;2023-02-01T01:02:48;1.90;84.68
77496;SHT31;66600;48.378;9.948;2023-02-01T01:05:13;1.87;84.80
77496;SHT31;66600;48.378;9.948;2023-02-01T01:07:38;1.83;85.11
77496;SHT31;66600;48.378;9.948;2023-02-01T01:10:04;1.81;85.03
77496;SHT31;66600;48.378;9.948;2023-02-01T01:12:30;1.79;85.24
77496;SHT31;66600;48.378;9.948;2023-02-01T01:14:55;1.76;85.24
77496;SHT31;66600;48.378;9.948;2023-02-01T01:17:20;1.72;85.71
77496;SHT31;66600;48.378;9.948;2023-02-01T01:19:46;1.70;85.63
77496;SHT31;66600;48.378;9.948;2023-02-01T01:22:11;1.72;85.64
77496;SHT31;66600;48.378;9.948;2023-02-01T01:24:36;1.70;86.05
77496;SHT31;66600;48.378;9.948;2023-02-01T01:27:01;1.67;86.21
77496;SHT31;66600;48.378;9.948;2023-02-01T01:29:28;1.64;86.24
77496;SHT31;66600;48.378;9.948;2023-02-01T01:31:53;1.63;86.17
77496;SHT31;66600;48.378;9.948;2023-02-01T01:34:18;1.60;86.49
77496;SHT31;66600;48.378;9.948;2023-02-01T01:36:43;1.62;86.27
77496;SHT31;66600;48.378;9.948;2023-02-01T01:39:09;1.60;86.22
77496;SHT31;66600;48.378;9.948;2023-02-01T01:41:34;1.56;86.32
77496;SHT31;66600;48.378;9.948;2023-02-01T01:44:00;1.58;86.44
77496;SHT31;66600;48.378;9.948;2023-02-01T01:46:37;1.60;86.36
77496;SHT31;66600;48.378;9.948;2023-02-01T01:49:21;1.59;86.25
77496;SHT31;66600;48.378;9.948;2023-02-01T01:51:55;1.56;86.45
77496;SHT31;66600;48.378;9.948;2023-02-01T01:54:29;1.55;86.27
77496;SHT31;66600;48.378;9.948;2023-02-01T01:57:00;1.55;86.39
77496;SHT31;66600;48.378;9.948;2023-02-01T01:59:26;1.52;86.60
77496;SHT31;66600;48.378;9.948;2023-02-01T02:01:52;1.49;86.63
77496;SHT31;66600;48.378;9.948;2023-02-01T02:04:18;1.51;86.78
77496;SHT31;66600;48.378;9.948;2023-02-01T02:07:05;1.53;86.81
77496;SHT31;66600;48.378;9.948;2023-02-01T02:09:32;1.48;87.03
77496;SHT31;66600;48.378;9.948;2023-02-01T02:11:58;1.56;86.71
77496;SHT31;66600;48.378;9.948;2023-02-01T02:14:24;1.53;86.86
77496;SHT31;66600;48.378;9.948;2023-02-01T02:17:19;1.58;86.60
77496;SHT31;66600;48.378;9.948;2023-02-01T02:20:08;1.58;86.69
77496;SHT31;66600;48.378;9.948;2023-02-01T02:34:06;1.53;87.29
77496;SHT31;66600;48.378;9.948;2023-02-01T02:39:34;1.52;87.42
77496;SHT31;66600;48.378;9.948;2023-02-01T02:48:26;1.53;87.38
77496;SHT31;66600;48.378;9.948;2023-02-01T02:51:42;1.52;87.48
77496;SHT31;66600;48.378;9.948;2023-02-01T02:54:10;1.46;87.71
77496;SHT31;66600;48.378;9.948;2023-02-01T02:56:56;1.46;87.78
77496;SHT31;66600;48.378;9.948;2023-02-01T02:59:44;1.45;87.96
77496;SHT31;66600;48.378;9.948;2023-02-01T03:02:29;1.48;87.82
77496;SHT31;66600;48.378;9.948;2023-02-01T03:05:13;1.48;87.92
77496;SHT31;66600;48.378;9.948;2023-02-01T03:13:01;1.52;87.72
77496;SHT31;66600;48.378;9.948;2023-02-01T03:15:35;1.49;87.81
77496;SHT31;66600;48.378;9.948;2023-02-01T03:18:04;1.58;87.62
77496;SHT31;66600;48.378;9.948;2023-02-01T03:20:32;1.58;87.53
77496;SHT31;66600;48.378;9.948;2023-02-01T03:22:58;1.59;87.52
77496;SHT31;66600;48.378;9.948;2023-02-01T03:25:29;1.56;87.77
77496;SHT31;66600;48.378;9.948;2023-02-01T03:28:08;1.63;87.52
77496;SHT31;66600;48.378;9.948;2023-02-01T03:30:35;1.60;87.71
77496;SHT31;66600;48.378;9.948;2023-02-01T03:33:05;1.62;87.62
77496;SHT31;66600;48.378;9.948;2023-02-01T03:38:35;1.63;87.54
77496;SHT31;66600;48.378;9.948;2023-02-01T03:41:15;1.59;87.96
77496;SHT31;66600;48.378;9.948;2023-02-01T03:46:18;1.59;88.40
77496;SHT31;66600;48.378;9.948;2023-02-01T03:48:44;1.51;89.01
77496;SHT31;66600;48.378;9.948;2023-02-01T03:51:10;1.51;89.36
77496;SHT31;66600;48.378;9.948;2023-02-01T03:53:36;1.48;89.60
77496;SHT31;66600;48.378;9.948;2023-02-01T03:56:02;1.48;89.91
77496;SHT31;66600;48.378;9.948;2023-02-01T03:58:28;1.51;89.68
77496;SHT31;66600;48.378;9.948;2023-02-01T04:00:55;1.45;90.08
77496;SHT31;66600;48.378;9.948;2023-02-01T04:03:21;1.46;90.28
77496;SHT31;66600;48.378;9.948;2023-02-01T04:05:48;1.45;90.54
77496;SHT31;66600;48.378;9.948;2023-02-01T04:08:14;1.46;90.56
77496;SHT31;66600;48.378;9.948;2023-02-01T04:10:39;1.49;90.58
77496;SHT31;66600;48.378;9.948;2023-02-01T04:13:04;1.49;90.64
77496;SHT31;66600;48.378;9.948;2023-02-01T04:15:30;1.51;90.51
77496;SHT31;66600;48.378;9.948;2023-02-01T04:17:55;1.42;90.93
77496;SHT31;66600;48.378;9.948;2023-02-01T04:20:20;1.45;90.49
77496;SHT31;66600;48.378;9.948;2023-02-01T04:22:46;1.51;89.98
77496;SHT31;66600;48.378;9.948;2023-02-01T04:25:11;1.53;89.96
77496;SHT31;66600;48.378;9.948;2023-02-01T04:27:36;1.53;89.81
77496;SHT31;66600;48.378;9.948;2023-02-01T04:30:04;1.51;89.82
77496;SHT31;66600;48.378;9.948;2023-02-01T04:32:29;1.48;89.90
77496;SHT31;66600;48.378;9.948;2023-02-01T04:34:54;1.52;89.71
77496;SHT31;66600;48.378;9.948;2023-02-01T04:37:20;1.48;89.95
77496;SHT31;66600;48.378;9.948;2023-02-01T04:39:45;1.51;89.82
77496;SHT31;66600;48.378;9.948;2023-02-01T04:42:10;1.49;90.08
77496;SHT31;66600;48.378;9.948;2023-02-01T04:44:36;1.48;89.96
77496;SHT31;66600;48.378;9.948;2023-02-01T04:47:07;1.52;89.86
77496;SHT31;66600;48.378;9.948;2023-02-01T04:49:32;1.55;89.79
77496;SHT31;66600;48.378;9.948;2023-02-01T04:51:59;1.51;89.91
77496;SHT31;66600;48.378;9.948;2023-02-01T04:54:24;1.53;89.85
77496;SHT31;66600;48.378;9.948;2023-02-01T04:56:50;1.51;90.04
77496;SHT31;66600;48.378;9.948;2023-02-01T04:59:15;1.49;90.23
77496;SHT31;66600;48.378;9.948;2023-02-01T05:01:40;1.49;90.31
77496;SHT31;66600;48.378;9.948;2023-02-01T05:04:06;1.52;90.27
77496;SHT31;66600;48.378;9.948;2023-02-01T05:06:31;1.46;90.69
77496;SHT31;66600;48.378;9.948;2023-02-01T05:08:56;1.51;90.30
77496;SHT31;66600;48.378;9.948;2023-02-01T05:11:21;1.49;90.55
77496;SHT31;66600;48.378;9.948;2023-02-01T05:14:05;1.43;90.57
77496;SHT31;66600;48.378;9.948;2023-02-01T05:16:31;1.39;90.98
77496;SHT31;66600;48.378;9.948;2023-02-01T05:18:56;1.42;90.75
77496;SHT31;66600;48.378;9.948;2023-02-01T05:21:21;1.42;90.78
77496;SHT31;66600;48.378;9.948;2023-02-01T05:23:46;1.41;90.62
77496;SHT31;66600;48.378;9.948;2023-02-01T05:26:31;1.48;90.31
77496;SHT31;66600;48.378;9.948;2023-02-01T05:28:56;1.46;90.48
77496;SHT31;66600;48.378;9.948;2023-02-01T05:31:23;1.52;90.08
77496;SHT31;66600;48.378;9.948;2023-02-01T05:33:48;1.48;90.28
77496;SHT31;66600;48.378;9.948;2023-02-01T05:36:14;1.46;90.31
77496;SHT31;66600;48.378;9.948;2023-02-01T05:38:40;1.45;90.19
77496;SHT31;66600;48.378;9.948;2023-02-01T05:41:05;1.52;90.05
77496;SHT31;66600;48.378;9.948;2023-02-01T05:43:31;1.51;90.03
77496;SHT31;66600;48.378;9.948;2023-02-01T05:45:56;1.51;90.09
77496;SHT31;66600;48.378;9.948;2023-02-01T05:48:21;1.53;89.93
77496;SHT31;66600;48.378;9.948;2023-02-01T05:50:47;1.51;90.06
77496;SHT31;66600;48.378;9.948;2023-02-01T05:53:12;1.55;89.58
77496;SHT31;66600;48.378;9.948;2023-02-01T05:55:38;1.55;89.40
77496;SHT31;66600;48.378;9.948;2023-02-01T05:58:04;1.56;89.60
77496;SHT31;66600;48.378;9.948;2023-02-01T06:00:30;1.55;89.72
77496;SHT31;66600;48.378;9.948;2023-02-01T06:02:55;1.51;89.84
77496;SHT31;66600;48.378;9.948;2023-02-01T06:05:21;1.55;89.61
77496;SHT31;66600;48.378;9.948;2023-02-01T06:07:46;1.53;89.81
77496;SHT31;66600;48.378;9.948;2023-02-01T06:10:12;1.56;89.81
77496;SHT31;66600;48.378;9.948;2023-02-01T06:12:43;1.56;89.69
77496;SHT31;66600;48.378;9.948;2023-02-01T06:15:10;1.56;89.53
77496;SHT31;66600;48.378;9.948;2023-02-01T06:17:36;1.60;89.35
77496;SHT31;66600;48.378;9.948;2023-02-01T06:20:01;1.59;89.33
77496;SHT31;66600;48.378;9.948;2023-02-01T06:22:26;1.59;89.77
77496;SHT31;66600;48.378;9.948;2023-02-01T06:24:52;1.64;89.21
77496;SHT31;66600;48.378;9.948;2023-02-01T06:27:17;1.63;89.21
77496;SHT31;66600;48.378;9.948;2023-02-01T06:29:42;1.67;89.26
77496;SHT31;66600;48.378;9.948;2023-02-01T06:32:08;1.63;89.43
77496;SHT31;66600;48.378;9.948;2023-02-01T06:34:34;1.66;89.25
77496;SHT31;66600;48.378;9.948;2023-02-01T06:36:59;1.66;89.38
77496;SHT31;66600;48.378;9.948;2023-02-01T06:39:24;1.66;89.30
77496;SHT31;66600;48.378;9.948;2023-02-01T06:41:52;1.62;89.43
77496;SHT31;66600;48.378;9.948;2023-02-01T06:44:17;1.62;89.65
77496;SHT31;66600;48.378;9.948;2023-02-01T06:46:43;1.64;89.62
77496;SHT31;66600;48.378;9.948;2023-02-01T06:49:08;1.67;89.44
77496;SHT31;66600;48.378;9.948;2023-02-01T06:51:34;1.70;89.18
77496;SHT31;66600;48.378;9.948;2023-02-01T06:54:00;1.64;89.37
77496;SHT31;66600;48.378;9.948;2023-02-01T06:56:25;1.69;89.32
77496;SHT31;66600;48.378;9.948;2023-02-01T06:58:51;1.73;89.12
77496;SHT31;66600;48.378;9.948;2023-02-01T07:01:17;1.73;89.14
77496;SHT31;66600;48.378;9.948;2023-02-01T07:03:42;1.76;89.20
77496;SHT31;66600;48.378;9.948;2023-02-01T07:06:08;1.77;89.09
77496;SHT31;66600;48.378;9.948;2023-02-01T07:08:35;1.79;88.91
77496;SHT31;66600;48.378;9.948;2023-02-01T07:11:03;1.76;89.07
77496;SHT31;66600;48.378;9.948;2023-02-01T07:13:28;1.73;89.14
77496;SHT31;66600;48.378;9.948;2023-02-01T07:15:53;1.74;89.37
77496;SHT31;66600;48.378;9.948;2023-02-01T07:18:19;1.80;89.16
77496;SHT31;66600;48.378;9.948;2023-02-01T07:20:49;1.80;89.15
77496;SHT31;66600;48.378;9.948;2023-02-01T07:23:15;1.80;89.10
77496;SHT31;66600;48.378;9.948;2023-02-01T07:25:40;1.81;89.37
77496;SHT31;66600;48.378;9.948;2023-02-01T07:28:05;1.90;89.01
77496;SHT31;66600;48.378;9.948;2023-02-01T07:30:31;1.94;88.77
77496;SHT31;66600;48.378;9.948;2023-02-01T07:32:56;2.03;88.82
77496;SHT31;66600;48.378;9.948;2023-02-01T07:35:26;2.06;88.75
77496;SHT31;66600;48.378;9.948;2023-02-01T07:37:51;2.07;88.58
77496;SHT31;66600;48.378;9.948;2023-02-01T07:40:16;2.10;88.45
77496;SHT31;66600;48.378;9.948;2023-02-01T07:42:43;2.10;88.55
77496;SHT31;66600;48.378;9.948;2023-02-01T07:45:09;2.13;88.21
77496;SHT31;66600;48.378;9.948;2023-02-01T07:47:34;2.15;88.11
77496;SHT31;66600;48.378;9.948;2023-02-01T07:49:59;2.18;88.20
77496;SHT31;66600;48.378;9.948;2023-02-01T07:52:27;2.21;88.20
77496;SHT31;66600;48.378;9.948;2023-02-01T07:54:53;2.25;88.08
77496;SHT31;66600;48.378;9.948;2023-02-01T07:57:19;2.29;87.89
77496;SHT31;66600;48.378;9.948;2023-02-01T07:59:44;2.31;87.74
77496;SHT31;66600;48.378;9.948;2023-02-01T08:02:28;2.35;87.60
77496;SHT31;66600;48.378;9.948;2023-02-01T08:04:53;2.35;87.55
77496;SHT31;66600;48.378;9.948;2023-02-01T08:07:18;2.35;87.63
77496;SHT31;66600;48.378;9.948;2023-02-01T08:09:44;2.38;87.46
77496;SHT31;66600;48.378;9.948;2023-02-01T08:12:09;2.42;87.43
77496;SHT31;66600;48.378;9.948;2023-02-01T08:14:34;2.37;87.52
77496;SHT31;66600;48.378;9.948;2023-02-01T08:17:00;2.52;87.15
77496;SHT31;66600;48.378;9.948;2023-02-01T08:19:25;2.52;87.18
77496;SHT31;66600;48.378;9.948;2023-02-01T08:21:50;2.60;86.87
77496;SHT31;66600;48.378;9.948;2023-02-01T08:24:15;2.59;87.03
77496;SHT31;66600;48.378;9.948;2023-02-01T08:26:41;2.60;86.99
77496;SHT31;66600;48.378;9.948;2023-02-01T08:29:07;2.62;86.84
77496;SHT31;66600;48.378;9.948;2023-02-01T08:31:33;2.67;86.82
77496;SHT31;66600;48.378;9.948;2023-02-01T08:34:00;2.69;86.78
77496;SHT31;66600;48.378;9.948;2023-02-01T08:36:27;2.66;86.81
77496;SHT31;66600;48.378;9.948;2023-02-01T08:38:53;2.60;87.10
77496;SHT31;66600;48.378;9.948;2023-02-01T08:41:22;2.60;87.44
77496;SHT31;66600;48.378;9.948;2023-02-01T08:43:47;2.60;87.07
77496;SHT31;66600;48.378;9.948;2023-02-01T08:46:13;2.56;87.46
77496;SHT31;66600;48.378;9.948;2023-02-01T08:48:39;2.49;87.57
77496;SHT31;66600;48.378;9.948;2023-02-01T08:51:07;2.44;87.76
77496;SHT31;66600;48.378;9.948;2023-02-01T08:53:32;2.55;87.44
77496;SHT31;66600;48.378;9.948;2023-02-01T08:55:58;2.55;87.39
77496;SHT31;66600;48.378;9.948;2023-02-01T08:58:24;2.66;87.28
77496;SHT31;66600;48.378;9.948;2023-02-01T09:00:49;2.72;86.67
77496;SHT31;66600;48.378;9.948;2023-02-01T09:03:15;2.77;86.30
77496;SHT31;66600;48.378;9.948;2023-02-01T09:05:40;2.82;86.24
77496;SHT31;66600;48.378;9.948;2023-02-01T09:08:06;2.97;86.01
77496;SHT31;66600;48.378;9.948;2023-02-01T09:10:32;3.03;85.62
77496;SHT31;66600;48.378;9.948;2023-02-01T09:12:58;3.08;85.62
77496;SHT31;66600;48.378;9.948;2023-02-01T09:15:23;3.11;85.85
77496;SHT31;66600;48.378;9.948;2023-02-01T09:17:49;3.18;85.23
77496;SHT31;66600;48.378;9.948;2023-02-01T09:20:14;3.17;85.39
77496;SHT31;66600;48.378;9.948;2023-02-01T09:22:40;3.25;85.30
77496;SHT31;66600;48.378;9.948;2023-02-01T09:25:06;3.25;85.26
77496;SHT31;66600;48.378;9.948;2023-02-01T09:27:32;3.20;85.12
77496;SHT31;66600;48.378;9.948;2023-02-01T09:29:57;3.20;85.35
77496;SHT31;66600;48.378;9.948;2023-02-01T09:32:23;3.14;85.74
77496;SHT31;66600;48.378;9.948;2023-02-01T09:34:52;3.05;85.94
77496;SHT31;66600;48.378;9.948;2023-02-01T09:37:17;3.03;86.02
77496;SHT31;66600;48.378;9.948;2023-02-01T09:39:43;3.08;85.62
77496;SHT31;66600;48.378;9.948;2023-02-01T09:47:19;3.03;86.38
77496;SHT31;66600;48.378;9.948;2023-02-01T09:52:29;2.97;86.06
77496;SHT31;66600;48.378;9.948;2023-02-01T09:55:01;2.93;85.98
77496;SHT31;66600;48.378;9.948;2023-02-01T10:00:27;2.92;86.49
77496;SHT31;66600;48.378;9.948;2023-02-01T10:02:54;3.03;86.00
77496;SHT31;66600;48.378;9.948;2023-02-01T10:05:42;3.17;85.30
77496;SHT31;66600;48.378;9.948;2023-02-01T10:11:35;3.00;85.62
77496;SHT31;66600;48.378;9.948;2023-02-01T10:17:03;3.00;85.83
77496;SHT31;66600;48.378;9.948;2023-02-01T10:19:55;2.92;85.98
77496;SHT31;66600;48.378;9.948;2023-02-01T10:22:43;2.87;86.16
77496;SHT31;66600;48.378;9.948;2023-02-01T10:25:41;2.77;86.49
77496;SHT31;66600;48.378;9.948;2023-02-01T10:28:14;2.80;86.25
77496;SHT31;66600;48.378;9.948;2023-02-01T10:30:46;2.87;86.40
77496;SHT31;66600;48.378;9.948;2023-02-01T10:33:34;2.82;86.35
77496;SHT31;66600;48.378;9.948;2023-02-01T10:36:13;2.89;86.29
77496;SHT31;66600;48.378;9.948;2023-02-01T10:38:42;2.84;86.33
77496;SHT31;66600;48.378;9.948;2023-02-01T10:41:30;2.84;86.41
77496;SHT31;66600;48.378;9.948;2023-02-01T10:43:58;2.93;86.10
77496;SHT31;66600;48.378;9.948;2023-02-01T10:46:25;2.99;85.52
77496;SHT31;66600;48.378;9.948;2023-02-01T10:48:52;3.08;85.29
77496;SHT31;66600;48.378;9.948;2023-02-01T10:51:22;3.18;84.76
77496;SHT31;66600;48.378;9.948;2023-02-01T10:53:55;3.22;84.72
77496;SHT31;66600;48.378;9.948;2023-02-01T10:56:24;3.43;84.00
77496;SHT31;66600;48.378;9.948;2023-02-01T10:58:50;3.58;83.54
77496;SHT31;66600;48.378;9.948;2023-02-01T11:01:20;3.66;82.52
77496;SHT31;66600;48.378;9.948;2023-02-01T11:03:54;3.55;82.70
77496;SHT31;66600;48.378;9.948;2023-02-01T11:06:36;3.48;83.39
77496;SHT31;66600;48.378;9.948;2023-02-01T11:14:20;3.46;83.50
77496;SHT31;66600;48.378;9.948;2023-02-01T11:19:44;3.51;82.60
77496;SHT31;66600;48.378;9.948;2023-02-01T11:22:12;3.48;82.38
77496;SHT31;66600;48.378;9.948;2023-02-01T11:24:37;3.55;81.96
77496;SHT31;66600;48.378;9.948;2023-02-01T11:27:06;3.66;82.04
77496;SHT31;66600;48.378;9.948;2023-02-01T11:29:40;3.78;81.20
77496;SHT31;66600;48.378;9.948;2023-02-01T11:32:07;3.79;81.09
77496;SHT31;66600;48.378;9.948;2023-02-01T11:34:48;3.98;79.92
77496;SHT31;66600;48.378;9.948;2023-02-01T11:37:19;4.01;79.82
77496;SHT31;66600;48.378;9.948;2023-02-01T11:39:54;4.08;79.57
77496;SHT31;66600;48.378;9.948;2023-02-01T11:42:20;4.10;79.60
77496;SHT31;66600;48.378;9.948;2023-02-01T11:44:46;4.21;78.45
77496;SHT31;66600;48.378;9.948;2023-02-01T11:47:28;4.33;77.53
77496;SHT31;66600;48.378;9.948;2023-02-01T11:49:59;4.46;76.62
77496;SHT31;66600;48.378;9.948;2023-02-01T11:55:38;4.73;76.11
77496;SHT31;66600;48.378;9.948;2023-02-01T11:58:11;4.87;77.08
77496;SHT31;66600;48.378;9.948;2023-02-01T12:00:59;4.80;77.66
77496;SHT31;66600;48.378;9.948;2023-02-01T12:04:04;4.90;76.38
77496;SHT31;66600;48.378;9.948;2023-02-01T12:06:51;4.90;76.88
77496;SHT31;66600;48.378;9.948;2023-02-01T12:15:16;5.06;76.44
77496;SHT31;66600;48.378;9.948;2023-02-01T12:25:36;5.31;73.66
77496;SHT31;66600;48.378;9.948;2023-02-01T12:31:37;5.44;73.30
77496;SHT31;66600;48.378;9.948;2023-02-01T12:36:44;5.60;73.41
77496;SHT31;66600;48.378;9.948;2023-02-01T12:42:14;4.73;75.86
77496;SHT31;66600;48.378;9.948;2023-02-01T12:44:52;4.58;76.72
77496;SHT31;66600;48.378;9.948;2023-02-01T12:47:26;4.40;76.81
77496;SHT31;66600;48.378;9.948;2023-02-01T12:52:38;4.20;77.49
77496;SHT31;66600;48.378;9.948;2023-02-01T12:55:10;4.22;77.67
77496;SHT31;66600;48.378;9.948;2023-02-01T12:57:45;4.08;78.54
77496;SHT31;66600;48.378;9.948;2023-02-01T13:00:18;4.11;79.08
77496;SHT31;66600;48.378;9.948;2023-02-01T13:02:55;4.04;78.93
77496;SHT31;66600;48.378;9.948;2023-02-01T13:05:28;3.93;79.34
77496;SHT31;66600;48.378;9.948;2023-02-01T13:08:14;3.94;79.59
77496;SHT31;66600;48.378;9.948;2023-02-01T13:10:58;3.97;79.69
77496;SHT31;66600;48.378;9.948;2023-02-01T13:16:28;4.06;74.86
77496;SHT31;66600;48.378;9.948;2023-02-01T13:21:55;4.21;69.81
77496;SHT31;66600;48.378;9.948;2023-02-01T13:24:43;4.28;69.69
77496;SHT31;66600;48.378;9.948;2023-02-01T13:27:14;4.22;69.95
77496;SHT31;66600;48.378;9.948;2023-02-01T13:30:34;4.22;69.55
77496;SHT31;66600;48.378;9.948;2023-02-01T13:35:50;4.18;69.26
77496;SHT31;66600;48.378;9.948;2023-02-01T13:43:48;4.18;69.18
77496;SHT31;66600;48.378;9.948;2023-02-01T13:46:15;4.21;68.57
77496;SHT31;66600;48.378;9.948;2023-02-01T13:48:55;4.16;68.64
77496;SHT31;66600;48.378;9.948;2023-02-01T13:51:35;4.16;68.42
77496;SHT31;66600;48.378;9.948;2023-02-01T13:54:01;4.17;68.56
77496;SHT31;66600;48.378;9.948;2023-02-01T13:56:39;4.11;69.29
77496;SHT31;66600;48.378;9.948;2023-02-01T14:10:53;4.01;69.45
77496;SHT31;66600;48.378;9.948;2023-02-01T14:13:38;3.97;69.63
77496;SHT31;66600;48.378;9.948;2023-02-01T14:21:26;3.97;70.07
77496;SHT31;66600;48.378;9.948;2023-02-01T14:26:21;3.96;70.03
77496;SHT31;66600;48.378;9.948;2023-02-01T14:28:52;4.00;69.45
77496;SHT31;66600;48.378;9.948;2023-02-01T14:33:59;4.03;69.38
77496;SHT31;66600;48.378;9.948;2023-02-01T14:36:25;3.97;69.81
77496;SHT31;66600;48.378;9.948;2023-02-01T14:38:52;4.01;69.42
77496;SHT31;66600;48.378;9.948;2023-02-01T14:41:32;4.00;69.67
77496;SHT31;66600;48.378;9.948;2023-02-01T14:47:03;4.03;69.48
77496;SHT31;66600;48.378;9.948;2023-02-01T14:49:32;4.01;69.93
77496;SHT31;66600;48.378;9.948;2023-02-01T14:51:59;4.03;69.18
77496;SHT31;66600;48.378;9.948;2023-02-01T14:54:25;4.01;69.27
77496;SHT31;66600;48.378;9.948;2023-02-01T14:56:52;4.00;70.09
77496;SHT31;66600;48.378;9.948;2023-02-01T14:59:20;3.97;69.91
77496;SHT31;66600;48.378;9.948;2023-02-01T15:01:54;4.00;69.52
77496;SHT31;66600;48.378;9.948;2023-02-01T15:04:21;3.98;70.02
77496;SHT31;66600;48.378;9.948;2023-02-01T15:06:50;3.96;70.76
77496;SHT31;66600;48.378;9.948;2023-02-01T15:09:25;3.90;71.09
77496;SHT31;66600;48.378;9.948;2023-02-01T15:12:02;3.94;70.51
77496;SHT31;66600;48.378;9.948;2023-02-01T15:14:34;3.94;70.55
77496;SHT31;66600;48.378;9.948;2023-02-01T15:17:00;3.91;70.79
77496;SHT31;66600;48.378;9.948;2023-02-01T15:19:27;3.94;70.62
77496;SHT31;66600;48.378;9.948;2023-02-01T15:21:55;3.86;71.41
77496;SHT31;66600;48.378;9.948;2023-02-01T15:24:29;3.91;70.78
77496;SHT31;66600;48.378;9.948;2023-02-01T15:26:55;3.93;70.80
77496;SHT31;66600;48.378;9.948;2023-02-01T15:29:22;3.93;70.75
77496;SHT31;66600;48.378;9.948;2023-02-01T15:31:52;3.90;70.78
77496;SHT31;66600;48.378;9.948;2023-02-01T15:34:19;3.89;71.29
77496;SHT31;66600;48.378;9.948;2023-02-01T15:36:45;3.89;70.94
77496;SHT31;66600;48.378;9.948;2023-02-01T15:39:22;3.85;71.14
77496;SHT31;66600;48.378;9.948;2023-02-01T15:41:54;3.87;70.87
77496;SHT31;66600;48.378;9.948;2023-02-01T15:44:28;3.91;70.30
77496;SHT31;66600;48.378;9.948;2023-02-01T15:46:54;3.90;70.62
77496;SHT31;66600;48.378;9.948;2023-02-01T15:49:28;3.94;70.52
77496;SHT31;66600;48.378;9.948;2023-02-01T15:51:54;3.91;70.46
77496;SHT31;66600;48.378;9.948;2023-02-01T15:54:26;3.91;71.01
77496;SHT31;66600;48.378;9.948;2023-02-01T15:56:54;3.87;70.95
77496;SHT31;66600;48.378;9.948;2023-02-01T15:59:29;3.89;71.41
77496;SHT31;66600;48.378;9.948;2023-02-01T16:01:55;3.87;71.24
77496;SHT31;66600;48.378;9.948;2023-02-01T16:04:23;3.79;71.60
77496;SHT31;66600;48.378;9.948;2023-02-01T16:06:55;3.78;71.74
77496;SHT31;66600;48.378;9.948;2023-02-01T16:09:23;3.78;72.02
77496;SHT31;66600;48.378;9.948;2023-02-01T16:11:54;3.73;71.83
77496;SHT31;66600;48.378;9.948;2023-02-01T16:14:20;3.75;72.20
77496;SHT31;66600;48.378;9.948;2023-02-01T16:16:45;3.73;72.60
77496;SHT31;66600;48.378;9.948;2023-02-01T16:19:10;3.66;73.41
77496;SHT31;66600;48.378;9.948;2023-02-01T16:21:36;3.60;74.08
77496;SHT31;66600;48.378;9.948;2023-02-01T16:24:01;3.54;74.28
77496;SHT31;66600;48.378;9.948;2023-02-01T16:26:30;3.62;73.14
77496;SHT31;66600;48.378;9.948;2023-02-01T16:28:56;3.58;73.87
77496;SHT31;66600;48.378;9.948;2023-02-01T16:31:26;3.65;72.73
77496;SHT31;66600;48.378;9.948;2023-02-01T16:33:52;3.75;71.99
77496;SHT31;66600;48.378;9.948;2023-02-01T16:36:18;3.70;72.73
77496;SHT31;66600;48.378;9.948;2023-02-01T16:38:44;3.73;72.00
77496;SHT31;66600;48.378;9.948;2023-02-01T16:41:16;3.78;71.44
77496;SHT31;66600;48.378;9.948;2023-02-01T16:43:41;3.82;71.59
77496;SHT31;66600;48.378;9.948;2023-02-01T16:46:13;3.85;71.58
77496;SHT31;66600;48.378;9.948;2023-02-01T16:48:41;3.78;71.96
77496;SHT31;66600;48.378;9.948;2023-02-01T16:51:12;3.80;71.68
77496;SHT31;66600;48.378;9.948;2023-02-01T16:53:39;3.79;71.48
77496;SHT31;66600;48.378;9.948;2023-02-01T16:56:13;3.87;70.80
77496;SHT31;66600;48.378;9.948;2023-02-01T16:58:39;3.85;71.80
77496;SHT31;66600;48.378;9.948;2023-02-01T17:01:06;3.82;71.67
77496;SHT31;66600;48.378;9.948;2023-02-01T17:03:31;3.78;72.04
77496;SHT31;66600;48.378;9.948;2023-02-01T17:05:57;3.76;72.06
77496;SHT31;66600;48.378;9.948;2023-02-01T17:08:31;3.75;72.27
77496;SHT31;66600;48.378;9.948;2023-02-01T17:10:58;3.72;72.40
77496;SHT31;66600;48.378;9.948;2023-02-01T17:13:23;3.68;72.56
77496;SHT31;66600;48.378;9.948;2023-02-01T17:16:03;3.70;72.30
77496;SHT31;66600;48.378;9.948;2023-02-01T17:18:32;3.75;72.21
77496;SHT31;66600;48.378;9.948;2023-02-01T17:20:59;3.69;72.66
77496;SHT31;66600;48.378;9.948;2023-02-01T17:23:26;3.69;72.48
77496;SHT31;66600;48.378;9.948;2023-02-01T17:25:53;3.68;72.66
77496;SHT31;66600;48.378;9.948;2023-02-01T17:28:18;3.66;72.79
77496;SHT31;66600;48.378;9.948;2023-02-01T17:30:44;3.69;72.68
77496;SHT31;66600;48.378;9.948;2023-02-01T17:35:42;3.65;73.08
77496;SHT31;66600;48.378;9.948;2023-02-01T17:38:11;3.72;72.59
77496;SHT31;66600;48.378;9.948;2023-02-01T17:40:36;3.72;72.30
77496;SHT31;66600;48.378;9.948;2023-02-01T17:43:02;3.76;72.35
77496;SHT31;66600;48.378;9.948;2023-02-01T17:45:34;3.72;72.65
77496;SHT31;66600;48.378;9.948;2023-02-01T17:48:02;3.75;72.34
77496;SHT31;66600;48.378;9.948;2023-02-01T17:50:30;3.76;72.16
77496;SHT31;66600;48.378;9.948;2023-02-01T17:52:56;3.72;72.22
77496;SHT31;66600;48.378;9.948;2023-02-01T17:55:23;3.73;72.20
77496;SHT31;66600;48.378;9.948;2023-02-01T17:57:49;3.75;72.28
77496;SHT31;66600;48.378;9.948;2023-02-01T18:00:16;3.70;72.18
77496;SHT31;66600;48.378;9.948;2023-02-01T18:02:43;3.73;72.17
77496;SHT31;66600;48.378;9.948;2023-02-01T18:05:21;3.63;72.72